sensor_id;sensor_type;location;lat;lon;timestamp;temperature;humidity
19968;DHT22;10145;49.152;9.282;2024-01-11T00:01:36;-5.00;99.90
19968;DHT22;10145;49.152;9.282;2024-01-11T00:04:01;-5.00;99.90
19968;DHT22;10145;49.152;9.282;2024-01-11T00:06:27;-4.90;99.90
19968;DHT22;10145;49.152;9.282;2024-01-11T00:08:52;-5.00;99.90
19968;DHT22;10145;49.152;9.282;2024-01-11T00:11:19;-5.00;99.90
19968;DHT22;10145;49.152;9.282;2024-01-11T00:13:44;-5.00;99.90
19968;DHT22;10145;49.152;9.282;2024-01-11T00:16:10;-4.90;99.90
19968;DHT22;10145;49.152;9.282;2024-01-11T00:18:35;-5.00;99.90
19968;DHT22;10145;49.152;9.282;2024-01-11T00:21:01;-5.00;99.90
19968;DHT22;10145;49.152;9.282;2024-01-11T00:23:27;-4.90;99.90
19968;DHT22;10145;49.152;9.282;2024-01-11T00:25:52;-4.90;99.90
19968;DHT22;10145;49.152;9.282;2024-01-11T00:28:18;-4.90;99.90
19968;DHT22;10145;49.152;9.282;2024-01-11T00:30:43;-5.00;99.90
19968;DHT22;10145;49.152;9.282;2024-01-11T00:33:09;-5.00;99.90
19968;DHT22;10145;49.152;9.282;2024-01-11T00:35:35;-4.90;99.90
19968;DHT22;10145;49.152;9.282;2024-01-11T00:38:00;-5.00;99.90
19968;DHT22;10145;49.152;9.282;2024-01-11T00:40:26;-4.90;99.90
19968;DHT22;10145;49.152;9.282;2024-01-11T00:42:51;-5.00;99.90
19968;DHT22;10145;49.152;9.282;2024-01-11T00:45:17;-5.00;99.90
19968;DHT22;10145;49.152;9.282;2024-01-11T00:47:43;-5.10;99.90
19968;DHT22;10145;49.152;9.282;2024-01-11T00:50:09;-5.20;99.90
19968;DHT22;10145;49.152;9.282;2024-01-11T00:52:35;-5.30;99.90
19968;DHT22;10145;49.152;9.282;2024-01-11T00:55:00;-5.40;99.90
19968;DHT22;10145;49.152;9.282;2024-01-11T00:57:26;-5.40;99.90
19968;DHT22;10145;49.152;9.282;2024-01-11T00:59:51;-5.50;99.90
19968;DHT22;10145;49.152;9.282;2024-01-11T01:02:17;-5.50;99.90
19968;DHT22;10145;49.152;9.282;2024-01-11T01:04:42;-5.40;99.90
19968;DHT22;10145;49.152;9.282;2024-01-11T01:07:08;-5.30;99.90
19968;DHT22;10145;49.152;9.282;2024-01-11T01:09:33;-5.20;99.90
19968;DHT22;10145;49.152;9.282;2024-01-11T01:11:59;-5.20;99.90
19968;DHT22;10145;49.152;9.282;2024-01-11T01:14:25;-5.20;99.90
19968;DHT22;10145;49.152;9.282;2024-01-11T01:16:51;-5.30;99.90
19968;DHT22;10145;49.152;9.282;2024-01-11T01:19:16;-5.20;99.90
19968;DHT22;10145;49.152;9.282;2024-01-11T01:21:42;-5.30;99.90
19968;DHT22;10145;49.152;9.282;2024-01-11T01:24:07;-5.10;99.90
19968;DHT22;10145;49.152;9.282;2024-01-11T01:26:33;-5.10;99.90
19968;DHT22;10145;49.152;9.282;2024-01-11T01:28:58;-5.10;99.90
19968;DHT22;10145;49.152;9.282;2024-01-11T01:31:24;-5.20;99.90
19968;DHT22;10145;49.152;9.282;2024-01-11T01:33:49;-5.20;99.90
19968;DHT22;10145;49.152;9.282;2024-01-11T01:36:15;-5.20;99.90
19968;DHT22;10145;49.152;9.282;2024-01-11T01:38:40;-5.20;99.90
19968;DHT22;10145;49.152;9.282;2024-01-11T01:41:06;-5.20;99.90
19968;DHT22;10145;49.152;9.282;2024-01-11T01:43:32;-5.30;99.90
19968;DHT22;10145;49.152;9.282;2024-01-11T01:45:58;-5.50;99.90
19968;DHT22;10145;49.152;9.282;2024-01-11T01:48:23;-5.60;99.90
19968;DHT22;10145;49.152;9.282;2024-01-11T01:50:49;-5.50;99.90
19968;DHT22;10145;49.152;9.282;2024-01-11T01:53:19;-5.40;99.90
19968;DHT22;10145;49.152;9.282;2024-01-11T01:55:45;-5.30;99.90
19968;DHT22;10145;49.152;9.282;2024-01-11T01:58:12;-5.20;99.90
19968;DHT22;10145;49.152;9.282;2024-01-11T02:00:38;-5.20;99.90
19968;DHT22;10145;49.152;9.282;2024-01-11T02:03:04;-5.20;99.90
19968;DHT22;10145;49.152;9.282;2024-01-11T02:05:30;-5.20;99.90
19968;DHT22;10145;49.152;9.282;2024-01-11T02:07:56;-5.30;99.90
19968;DHT22;10145;49.152;9.282;2024-01-11T02:10:23;-5.30;99.90
19968;DHT22;10145;49.152;9.282;2024-01-11T02:12:50;-5.30;99.90
19968;DHT22;10145;49.152;9.282;2024-01-11T02:15:15;-5.50;99.90
19968;DHT22;10145;49.152;9.282;2024-01-11T02:17:41;-5.50;99.90
19968;DHT22;10145;49.152;9.282;2024-01-11T02:20:07;-5.50;99.90
19968;DHT22;10145;49.152;9.282;2024-01-11T02:22:35;-5.50;99.90
19968;DHT22;10145;49.152;9.282;2024-01-11T02:25:01;-5.30;99.90
19968;DHT22;10145;49.152;9.282;2024-01-11T02:27:27;-5.30;99.90
19968;DHT22;10145;49.152;9.282;2024-01-11T02:29:53;-5.30;99.90
19968;DHT22;10145;49.152;9.282;2024-01-11T02:32:19;-5.30;99.90
19968;DHT22;10145;49.152;9.282;2024-01-11T02:34:45;-5.20;99.90
19968;DHT22;10145;49.152;9.282;2024-01-11T02:37:11;-5.10;99.90
19968;DHT22;10145;49.152;9.282;2024-01-11T02:39:37;-5.00;99.90
19968;DHT22;10145;49.152;9.282;2024-01-11T02:42:03;-5.00;99.90
19968;DHT22;10145;49.152;9.282;2024-01-11T02:44:28;-5.00;99.90
19968;DHT22;10145;49.152;9.282;2024-01-11T02:46:54;-5.10;99.90
19968;DHT22;10145;49.152;9.282;2024-01-11T02:49:19;-5.00;99.90
19968;DHT22;10145;49.152;9.282;2024-01-11T02:51:45;-4.90;99.90
19968;DHT22;10145;49.152;9.282;2024-01-11T02:54:11;-5.00;99.90
19968;DHT22;10145;49.152;9.282;2024-01-11T02:56:36;-5.00;99.90
19968;DHT22;10145;49.152;9.282;2024-01-11T02:59:02;-5.10;99.90
19968;DHT22;10145;49.152;9.282;2024-01-11T03:01:27;-5.10;99.90
19968;DHT22;10145;49.152;9.282;2024-01-11T03:03:53;-5.10;99.90
19968;DHT22;10145;49.152;9.282;2024-01-11T03:06:19;-5.20;99.90
19968;DHT22;10145;49.152;9.282;2024-01-11T03:08:48;-5.10;99.90
19968;DHT22;10145;49.152;9.282;2024-01-11T03:11:14;-5.20;99.90
19968;DHT22;10145;49.152;9.282;2024-01-11T03:13:39;-5.10;99.90
19968;DHT22;10145;49.152;9.282;2024-01-11T03:16:05;-5.10;99.90
19968;DHT22;10145;49.152;9.282;2024-01-11T03:18:31;-5.10;99.90
19968;DHT22;10145;49.152;9.282;2024-01-11T03:20:57;-5.20;99.90
19968;DHT22;10145;49.152;9.282;2024-01-11T03:23:22;-5.30;99.90
19968;DHT22;10145;49.152;9.282;2024-01-11T03:25:48;-5.30;99.90
19968;DHT22;10145;49.152;9.282;2024-01-11T03:28:13;-5.30;99.90
19968;DHT22;10145;49.152;9.282;2024-01-11T03:30:39;-5.20;99.90
19968;DHT22;10145;49.152;9.282;2024-01-11T03:33:04;-5.20;99.90
19968;DHT22;10145;49.152;9.282;2024-01-11T03:35:31;-5.20;99.90
19968;DHT22;10145;49.152;9.282;2024-01-11T03:37:56;-5.10;99.90
19968;DHT22;10145;49.152;9.282;2024-01-11T03:40:22;-5.10;99.90
19968;DHT22;10145;49.152;9.282;2024-01-11T03:42:47;-5.00;99.90
19968;DHT22;10145;49.152;9.282;2024-01-11T03:45:13;-5.00;99.90
19968;DHT22;10145;49.152;9.282;2024-01-11T03:47:38;-5.00;99.90
19968;DHT22;10145;49.152;9.282;2024-01-11T03:50:04;-5.00;99.90
19968;DHT22;10145;49.152;9.282;2024-01-11T03:52:30;-5.10;99.90
19968;DHT22;10145;49.152;9.282;2024-01-11T03:54:56;-5.00;99.90
19968;DHT22;10145;49.152;9.282;2024-01-11T03:57:21;-5.00;99.90
19968;DHT22;10145;49.152;9.282;2024-01-11T03:59:47;-5.20;99.90
19968;DHT22;10145;49.152;9.282;2024-01-11T04:02:12;-5.40;99.90
19968;DHT22;10145;49.152;9.282;2024-01-11T04:04:38;-5.50;99.90
19968;DHT22;10145;49.152;9.282;2024-01-11T04:07:03;-5.50;99.90
19968;DHT22;10145;49.152;9.282;2024-01-11T04:09:29;-5.30;99.90
19968;DHT22;10145;49.152;9.282;2024-01-11T04:11:55;-5.30;99.90
19968;DHT22;10145;49.152;9.282;2024-01-11T04:14:20;-5.30;99.90
19968;DHT22;10145;49.152;9.282;2024-01-11T04:16:46;-5.20;99.90
19968;DHT22;10145;49.152;9.282;2024-01-11T04:19:11;-5.20;99.90
19968;DHT22;10145;49.152;9.282;2024-01-11T04:21:37;-5.30;99.90
19968;DHT22;10145;49.152;9.282;2024-01-11T04:24:04;-5.30;99.90
19968;DHT22;10145;49.152;9.282;2024-01-11T04:26:31;-5.40;99.90
19968;DHT22;10145;49.152;9.282;2024-01-11T04:28:57;-5.40;99.90
19968;DHT22;10145;49.152;9.282;2024-01-11T04:31:25;-5.40;99.90
19968;DHT22;10145;49.152;9.282;2024-01-11T04:33:51;-5.30;99.90
19968;DHT22;10145;49.152;9.282;2024-01-11T04:36:16;-5.30;99.90
19968;DHT22;10145;49.152;9.282;2024-01-11T04:38:42;-5.00;99.90
19968;DHT22;10145;49.152;9.282;2024-01-11T04:41:12;-5.30;99.90
19968;DHT22;10145;49.152;9.282;2024-01-11T04:43:42;-5.30;99.90
19968;DHT22;10145;49.152;9.282;2024-01-11T04:46:21;-5.30;99.90
19968;DHT22;10145;49.152;9.282;2024-01-11T04:48:47;-5.40;99.90
19968;DHT22;10145;49.152;9.282;2024-01-11T04:51:17;-5.50;99.90
19968;DHT22;10145;49.152;9.282;2024-01-11T04:53:44;-5.60;99.90
19968;DHT22;10145;49.152;9.282;2024-01-11T04:56:11;-5.60;99.90
19968;DHT22;10145;49.152;9.282;2024-01-11T04:58:40;-5.50;99.90
19968;DHT22;10145;49.152;9.282;2024-01-11T05:01:06;-5.50;99.90
19968;DHT22;10145;49.152;9.282;2024-01-11T05:03:32;-5.60;99.90
19968;DHT22;10145;49.152;9.282;2024-01-11T05:06:01;-5.60;99.90
19968;DHT22;10145;49.152;9.282;2024-01-11T05:08:26;-5.50;99.90
19968;DHT22;10145;49.152;9.282;2024-01-11T05:10:53;-5.50;99.90
19968;DHT22;10145;49.152;9.282;2024-01-11T05:13:19;-5.50;99.90
19968;DHT22;10145;49.152;9.282;2024-01-11T05:15:45;-5.40;99.90
19968;DHT22;10145;49.152;9.282;2024-01-11T05:18:11;-5.40;99.90
19968;DHT22;10145;49.152;9.282;2024-01-11T05:20:37;-5.40;99.90
19968;DHT22;10145;49.152;9.282;2024-01-11T05:23:03;-5.50;99.90
19968;DHT22;10145;49.152;9.282;2024-01-11T05:25:29;-5.50;99.90
19968;DHT22;10145;49.152;9.282;2024-01-11T05:28:02;-5.60;99.90
19968;DHT22;10145;49.152;9.282;2024-01-11T05:30:28;-5.60;99.90
19968;DHT22;10145;49.152;9.282;2024-01-11T05:32:54;-5.70;99.90
19968;DHT22;10145;49.152;9.282;2024-01-11T05:35:20;-5.70;99.90
19968;DHT22;10145;49.152;9.282;2024-01-11T05:37:46;-5.70;99.90
19968;DHT22;10145;49.152;9.282;2024-01-11T05:40:12;-5.70;99.90
19968;DHT22;10145;49.152;9.282;2024-01-11T05:42:37;-5.60;99.90
19968;DHT22;10145;49.152;9.282;2024-01-11T05:45:04;-5.60;99.90
19968;DHT22;10145;49.152;9.282;2024-01-11T05:47:30;-5.70;99.90
19968;DHT22;10145;49.152;9.282;2024-01-11T05:49:56;-5.80;99.90
19968;DHT22;10145;49.152;9.282;2024-01-11T05:52:21;-5.70;99.90
19968;DHT22;10145;49.152;9.282;2024-01-11T05:54:47;-5.70;99.90
19968;DHT22;10145;49.152;9.282;2024-01-11T05:57:13;-5.70;99.90
19968;DHT22;10145;49.152;9.282;2024-01-11T05:59:43;-5.80;99.90
19968;DHT22;10145;49.152;9.282;2024-01-11T06:02:09;-5.70;99.90
19968;DHT22;10145;49.152;9.282;2024-01-11T06:04:36;-5.70;99.90
19968;DHT22;10145;49.152;9.282;2024-01-11T06:07:01;-5.70;99.90
19968;DHT22;10145;49.152;9.282;2024-01-11T06:09:27;-5.60;99.90
19968;DHT22;10145;49.152;9.282;2024-01-11T06:11:52;-5.70;99.90
19968;DHT22;10145;49.152;9.282;2024-01-11T06:14:18;-5.70;99.90
19968;DHT22;10145;49.152;9.282;2024-01-11T06:16:43;-5.70;99.90
19968;DHT22;10145;49.152;9.282;2024-01-11T06:19:09;-5.70;99.90
19968;DHT22;10145;49.152;9.282;2024-01-11T06:21:35;-5.70;99.90
19968;DHT22;10145;49.152;9.282;2024-01-11T06:24:00;-5.80;99.90
19968;DHT22;10145;49.152;9.282;2024-01-11T06:26:26;-5.80;99.90
19968;DHT22;10145;49.152;9.282;2024-01-11T06:28:51;-5.80;99.90
19968;DHT22;10145;49.152;9.282;2024-01-11T06:31:17;-5.90;99.90
19968;DHT22;10145;49.152;9.282;2024-01-11T06:33:43;-6.10;99.90
19968;DHT22;10145;49.152;9.282;2024-01-11T06:36:09;-6.00;99.90
19968;DHT22;10145;49.152;9.282;2024-01-11T06:38:34;-5.90;99.90
19968;DHT22;10145;49.152;9.282;2024-01-11T06:41:00;-6.00;99.90
19968;DHT22;10145;49.152;9.282;2024-01-11T06:43:25;-6.00;99.90
19968;DHT22;10145;49.152;9.282;2024-01-11T06:45:51;-6.00;99.90
19968;DHT22;10145;49.152;9.282;2024-01-11T06:48:18;-6.00;99.90
19968;DHT22;10145;49.152;9.282;2024-01-11T06:50:43;-5.80;99.90
19968;DHT22;10145;49.152;9.282;2024-01-11T06:53:09;-5.90;99.90
19968;DHT22;10145;49.152;9.282;2024-01-11T06:55:35;-5.90;99.90
19968;DHT22;10145;49.152;9.282;2024-01-11T06:58:00;-5.90;99.90
19968;DHT22;10145;49.152;9.282;2024-01-11T07:00:27;-6.00;99.90
19968;DHT22;10145;49.152;9.282;2024-01-11T07:02:53;-6.00;99.90
19968;DHT22;10145;49.152;9.282;2024-01-11T07:05:19;-6.00;99.90
19968;DHT22;10145;49.152;9.282;2024-01-11T07:07:44;-6.00;99.90
19968;DHT22;10145;49.152;9.282;2024-01-11T07:10:10;-6.10;99.90
19968;DHT22;10145;49.152;9.282;2024-01-11T07:12:36;-6.00;99.90
19968;DHT22;10145;49.152;9.282;2024-01-11T07:15:04;-6.10;99.90
19968;DHT22;10145;49.152;9.282;2024-01-11T07:17:30;-6.00;99.90
19968;DHT22;10145;49.152;9.282;2024-01-11T07:19:55;-6.00;99.90
19968;DHT22;10145;49.152;9.282;2024-01-11T07:22:21;-6.00;99.90
19968;DHT22;10145;49.152;9.282;2024-01-11T07:24:47;-6.10;99.90
19968;DHT22;10145;49.152;9.282;2024-01-11T07:27:12;-6.20;99.90
19968;DHT22;10145;49.152;9.282;2024-01-11T07:29:38;-6.20;99.90
19968;DHT22;10145;49.152;9.282;2024-01-11T07:32:04;-6.10;99.90
19968;DHT22;10145;49.152;9.282;2024-01-11T07:34:30;-6.10;99.90
19968;DHT22;10145;49.152;9.282;2024-01-11T07:36:55;-6.00;99.90
19968;DHT22;10145;49.152;9.282;2024-01-11T07:39:22;-5.90;99.90
19968;DHT22;10145;49.152;9.282;2024-01-11T07:41:48;-5.90;99.90
19968;DHT22;10145;49.152;9.282;2024-01-11T07:44:14;-5.90;99.90
19968;DHT22;10145;49.152;9.282;2024-01-11T07:46:39;-5.80;99.90
19968;DHT22;10145;49.152;9.282;2024-01-11T07:49:06;-5.80;99.90
19968;DHT22;10145;49.152;9.282;2024-01-11T07:51:33;-5.80;99.90
19968;DHT22;10145;49.152;9.282;2024-01-11T07:54:00;-5.60;99.90
19968;DHT22;10145;49.152;9.282;2024-01-11T07:56:25;-5.80;99.90
19968;DHT22;10145;49.152;9.282;2024-01-11T07:58:51;-5.70;99.90
19968;DHT22;10145;49.152;9.282;2024-01-11T08:01:16;-5.70;99.90
19968;DHT22;10145;49.152;9.282;2024-01-11T08:03:42;-5.70;99.90
19968;DHT22;10145;49.152;9.282;2024-01-11T08:06:10;-5.60;99.90
19968;DHT22;10145;49.152;9.282;2024-01-11T08:08:37;-5.70;99.90
19968;DHT22;10145;49.152;9.282;2024-01-11T08:11:04;-5.60;99.90
19968;DHT22;10145;49.152;9.282;2024-01-11T08:13:30;-5.50;99.90
19968;DHT22;10145;49.152;9.282;2024-01-11T08:15:56;-5.40;99.90
19968;DHT22;10145;49.152;9.282;2024-01-11T08:18:22;-5.40;99.90
19968;DHT22;10145;49.152;9.282;2024-01-11T08:20:49;-5.40;99.90
19968;DHT22;10145;49.152;9.282;2024-01-11T08:23:14;-5.40;99.90
19968;DHT22;10145;49.152;9.282;2024-01-11T08:25:40;-5.40;99.90
19968;DHT22;10145;49.152;9.282;2024-01-11T08:28:06;-5.30;99.90
19968;DHT22;10145;49.152;9.282;2024-01-11T08:30:32;-5.20;99.90
19968;DHT22;10145;49.152;9.282;2024-01-11T08:32:58;-5.10;99.90
19968;DHT22;10145;49.152;9.282;2024-01-11T08:35:23;-5.10;99.90
19968;DHT22;10145;49.152;9.282;2024-01-11T08:37:49;-5.00;99.90
19968;DHT22;10145;49.152;9.282;2024-01-11T08:40:15;-4.90;99.90
19968;DHT22;10145;49.152;9.282;2024-01-11T08:42:41;-4.90;99.90
19968;DHT22;10145;49.152;9.282;2024-01-11T08:45:08;-4.80;99.90
19968;DHT22;10145;49.152;9.282;2024-01-11T08:47:34;-4.80;99.90
19968;DHT22;10145;49.152;9.282;2024-01-11T08:50:00;-4.70;99.90
19968;DHT22;10145;49.152;9.282;2024-01-11T08:52:26;-4.70;99.90
19968;DHT22;10145;49.152;9.282;2024-01-11T08:54:52;-4.60;99.90
19968;DHT22;10145;49.152;9.282;2024-01-11T08:57:17;-4.50;99.90
19968;DHT22;10145;49.152;9.282;2024-01-11T08:59:43;-4.50;99.90
19968;DHT22;10145;49.152;9.282;2024-01-11T09:02:09;-4.40;99.90
19968;DHT22;10145;49.152;9.282;2024-01-11T09:04:36;-4.30;99.90
19968;DHT22;10145;49.152;9.282;2024-01-11T09:07:01;-4.20;99.90
19968;DHT22;10145;49.152;9.282;2024-01-11T09:09:27;-4.20;99.90
19968;DHT22;10145;49.152;9.282;2024-01-11T09:11:53;-4.00;99.90
19968;DHT22;10145;49.152;9.282;2024-01-11T09:14:18;-4.00;99.90
19968;DHT22;10145;49.152;9.282;2024-01-11T09:16:44;-3.90;99.90
19968;DHT22;10145;49.152;9.282;2024-01-11T09:19:11;-3.80;99.90
19968;DHT22;10145;49.152;9.282;2024-01-11T09:21:37;-3.70;99.90
19968;DHT22;10145;49.152;9.282;2024-01-11T09:24:03;-3.60;99.90
19968;DHT22;10145;49.152;9.282;2024-01-11T09:26:28;-3.50;99.90
19968;DHT22;10145;49.152;9.282;2024-01-11T09:28:54;-3.50;99.90
19968;DHT22;10145;49.152;9.282;2024-01-11T09:31:19;-3.50;99.90
19968;DHT22;10145;49.152;9.282;2024-01-11T09:33:45;-3.40;99.90
19968;DHT22;10145;49.152;9.282;2024-01-11T09:36:11;-3.30;99.90
19968;DHT22;10145;49.152;9.282;2024-01-11T09:38:37;-3.30;99.90
19968;DHT22;10145;49.152;9.282;2024-01-11T09:41:10;-3.20;99.90
19968;DHT22;10145;49.152;9.282;2024-01-11T09:43:37;-3.10;99.90
19968;DHT22;10145;49.152;9.282;2024-01-11T09:46:04;-3.10;99.90
19968;DHT22;10145;49.152;9.282;2024-01-11T09:48:34;-3.00;99.90
19968;DHT22;10145;49.152;9.282;2024-01-11T09:51:04;-3.00;99.90
19968;DHT22;10145;49.152;9.282;2024-01-11T09:53:33;-2.80;99.90
19968;DHT22;10145;49.152;9.282;2024-01-11T09:55:59;-2.80;99.90
19968;DHT22;10145;49.152;9.282;2024-01-11T09:58:26;-2.70;99.90
19968;DHT22;10145;49.152;9.282;2024-01-11T10:00:55;-2.60;99.90
19968;DHT22;10145;49.152;9.282;2024-01-11T10:03:23;-2.50;99.90
19968;DHT22;10145;49.152;9.282;2024-01-11T10:05:49;-2.40;99.90
19968;DHT22;10145;49.152;9.282;2024-01-11T10:08:18;-2.40;99.90
19968;DHT22;10145;49.152;9.282;2024-01-11T10:10:44;-2.30;99.90
19968;DHT22;10145;49.152;9.282;2024-01-11T10:13:10;-2.20;99.90
19968;DHT22;10145;49.152;9.282;2024-01-11T10:15:36;-2.20;99.90
19968;DHT22;10145;49.152;9.282;2024-01-11T10:18:02;-2.10;99.90
19968;DHT22;10145;49.152;9.282;2024-01-11T10:20:28;-2.10;99.90
19968;DHT22;10145;49.152;9.282;2024-01-11T10:22:56;-2.00;99.90
19968;DHT22;10145;49.152;9.282;2024-01-11T10:25:23;-1.90;99.90
19968;DHT22;10145;49.152;9.282;2024-01-11T10:27:49;-1.90;99.90
19968;DHT22;10145;49.152;9.282;2024-01-11T10:30:15;-1.80;99.90
19968;DHT22;10145;49.152;9.282;2024-01-11T10:32:42;-1.70;99.90
19968;DHT22;10145;49.152;9.282;2024-01-11T10:35:08;-1.70;99.90
19968;DHT22;10145;49.152;9.282;2024-01-11T10:37:33;-1.70;99.90
19968;DHT22;10145;49.152;9.282;2024-01-11T10:40:03;-1.60;99.90
19968;DHT22;10145;49.152;9.282;2024-01-11T10:42:31;-1.50;99.90
19968;DHT22;10145;49.152;9.282;2024-01-11T10:44:59;-1.50;99.90
19968;DHT22;10145;49.152;9.282;2024-01-11T10:47:30;-1.40;99.90
19968;DHT22;10145;49.152;9.282;2024-01-11T10:49:56;-1.40;99.90
19968;DHT22;10145;49.152;9.282;2024-01-11T10:52:28;-1.40;99.90
19968;DHT22;10145;49.152;9.282;2024-01-11T10:54:59;-1.30;99.90
19968;DHT22;10145;49.152;9.282;2024-01-11T10:57:27;-1.30;99.90
19968;DHT22;10145;49.152;9.282;2024-01-11T10:59:54;-1.20;99.90
19968;DHT22;10145;49.152;9.282;2024-01-11T11:02:21;-1.10;99.90
19968;DHT22;10145;49.152;9.282;2024-01-11T11:04:48;-1.00;99.90
19968;DHT22;10145;49.152;9.282;2024-01-11T11:07:16;-0.90;99.90
19968;DHT22;10145;49.152;9.282;2024-01-11T11:09:43;-0.80;99.90
19968;DHT22;10145;49.152;9.282;2024-01-11T11:12:11;-0.80;99.90
19968;DHT22;10145;49.152;9.282;2024-01-11T11:14:38;-0.70;99.90
19968;DHT22;10145;49.152;9.282;2024-01-11T11:17:04;-0.70;99.90
19968;DHT22;10145;49.152;9.282;2024-01-11T11:19:30;-0.60;99.90
19968;DHT22;10145;49.152;9.282;2024-01-11T11:21:56;-0.60;99.90
19968;DHT22;10145;49.152;9.282;2024-01-11T11:24:22;-0.50;99.90
19968;DHT22;10145;49.152;9.282;2024-01-11T11:26:47;-0.50;99.90
19968;DHT22;10145;49.152;9.282;2024-01-11T11:29:15;-0.50;99.90
19968;DHT22;10145;49.152;9.282;2024-01-11T11:31:45;-0.40;99.90
19968;DHT22;10145;49.152;9.282;2024-01-11T11:34:19;-0.30;99.90
19968;DHT22;10145;49.152;9.282;2024-01-11T11:36:50;-0.20;99.90
19968;DHT22;10145;49.152;9.282;2024-01-11T11:39:20;-0.10;99.90
19968;DHT22;10145;49.152;9.282;2024-01-11T11:41:45;-0.10;99.90
19968;DHT22;10145;49.152;9.282;2024-01-11T11:44:12;0.00;99.90
19968;DHT22;10145;49.152;9.282;2024-01-11T11:46:41;0.10;99.90
19968;DHT22;10145;49.152;9.282;2024-01-11T11:49:07;0.20;99.90
19968;DHT22;10145;49.152;9.282;2024-01-11T11:51:32;0.30;99.90
19968;DHT22;10145;49.152;9.282;2024-01-11T11:53:58;0.30;99.90
19968;DHT22;10145;49.152;9.282;2024-01-11T11:56:24;0.30;99.90
19968;DHT22;10145;49.152;9.282;2024-01-11T11:58:52;0.40;99.90
19968;DHT22;10145;49.152;9.282;2024-01-11T12:01:19;0.40;99.90
19968;DHT22;10145;49.152;9.282;2024-01-11T12:03:45;0.50;99.90
19968;DHT22;10145;49.152;9.282;2024-01-11T12:06:15;0.60;99.90
19968;DHT22;10145;49.152;9.282;2024-01-11T12:08:45;0.70;99.90
19968;DHT22;10145;49.152;9.282;2024-01-11T12:11:18;0.80;99.90
19968;DHT22;10145;49.152;9.282;2024-01-11T12:13:44;0.80;99.90
19968;DHT22;10145;49.152;9.282;2024-01-11T12:16:10;0.80;99.90
19968;DHT22;10145;49.152;9.282;2024-01-11T12:18:36;0.80;99.90
19968;DHT22;10145;49.152;9.282;2024-01-11T12:21:01;0.90;99.90
19968;DHT22;10145;49.152;9.282;2024-01-11T12:23:27;0.90;99.90
19968;DHT22;10145;49.152;9.282;2024-01-11T12:25:57;0.80;99.90
19968;DHT22;10145;49.152;9.282;2024-01-11T12:28:24;0.90;99.90
19968;DHT22;10145;49.152;9.282;2024-01-11T12:30:50;1.00;99.90
19968;DHT22;10145;49.152;9.282;2024-01-11T12:33:16;1.00;99.90
19968;DHT22;10145;49.152;9.282;2024-01-11T12:35:42;1.10;99.90
19968;DHT22;10145;49.152;9.282;2024-01-11T12:38:08;1.20;99.90
19968;DHT22;10145;49.152;9.282;2024-01-11T12:40:37;1.20;99.90
19968;DHT22;10145;49.152;9.282;2024-01-11T12:43:06;1.20;99.90
19968;DHT22;10145;49.152;9.282;2024-01-11T12:45:34;1.20;99.90
19968;DHT22;10145;49.152;9.282;2024-01-11T12:48:01;1.20;99.90
19968;DHT22;10145;49.152;9.282;2024-01-11T12:50:27;1.30;99.90
19968;DHT22;10145;49.152;9.282;2024-01-11T12:53:09;1.30;99.90
19968;DHT22;10145;49.152;9.282;2024-01-11T12:55:35;1.30;99.90
19968;DHT22;10145;49.152;9.282;2024-01-11T12:58:05;1.30;99.90
19968;DHT22;10145;49.152;9.282;2024-01-11T13:00:31;1.40;99.90
19968;DHT22;10145;49.152;9.282;2024-01-11T13:02:56;1.40;99.90
19968;DHT22;10145;49.152;9.282;2024-01-11T13:05:22;1.40;99.90
19968;DHT22;10145;49.152;9.282;2024-01-11T13:07:48;1.50;99.90
19968;DHT22;10145;49.152;9.282;2024-01-11T13:10:13;1.40;99.90
19968;DHT22;10145;49.152;9.282;2024-01-11T13:12:40;1.40;99.90
19968;DHT22;10145;49.152;9.282;2024-01-11T13:15:06;1.30;99.90
19968;DHT22;10145;49.152;9.282;2024-01-11T13:17:31;1.30;99.90
19968;DHT22;10145;49.152;9.282;2024-01-11T13:19:57;1.30;99.90
19968;DHT22;10145;49.152;9.282;2024-01-11T13:22:24;1.30;99.90
19968;DHT22;10145;49.152;9.282;2024-01-11T13:24:50;1.30;99.90
19968;DHT22;10145;49.152;9.282;2024-01-11T13:27:16;1.30;99.90
19968;DHT22;10145;49.152;9.282;2024-01-11T13:29:41;1.20;99.90
19968;DHT22;10145;49.152;9.282;2024-01-11T13:32:07;1.10;99.90
19968;DHT22;10145;49.152;9.282;2024-01-11T13:34:32;1.10;99.90
19968;DHT22;10145;49.152;9.282;2024-01-11T13:36:58;1.20;99.90
19968;DHT22;10145;49.152;9.282;2024-01-11T13:39:25;1.20;99.90
19968;DHT22;10145;49.152;9.282;2024-01-11T13:41:50;1.20;99.90
19968;DHT22;10145;49.152;9.282;2024-01-11T13:44:16;1.20;99.90
19968;DHT22;10145;49.152;9.282;2024-01-11T13:46:42;1.20;99.90
19968;DHT22;10145;49.152;9.282;2024-01-11T13:49:09;1.30;99.90
19968;DHT22;10145;49.152;9.282;2024-01-11T13:51:34;1.30;99.90
19968;DHT22;10145;49.152;9.282;2024-01-11T13:54:00;1.20;99.90
19968;DHT22;10145;49.152;9.282;2024-01-11T13:56:27;1.20;99.90
19968;DHT22;10145;49.152;9.282;2024-01-11T13:58:52;1.20;99.90
19968;DHT22;10145;49.152;9.282;2024-01-11T14:01:18;1.30;99.90
19968;DHT22;10145;49.152;9.282;2024-01-11T14:03:43;1.30;99.90
19968;DHT22;10145;49.152;9.282;2024-01-11T14:06:09;1.20;99.90
19968;DHT22;10145;49.152;9.282;2024-01-11T14:08:35;1.20;99.90
19968;DHT22;10145;49.152;9.282;2024-01-11T14:11:00;1.20;99.90
19968;DHT22;10145;49.152;9.282;2024-01-11T14:13:26;1.20;99.90
19968;DHT22;10145;49.152;9.282;2024-01-11T14:15:51;1.20;99.90
19968;DHT22;10145;49.152;9.282;2024-01-11T14:18:20;1.20;99.90
19968;DHT22;10145;49.152;9.282;2024-01-11T14:20:45;1.20;99.90
19968;DHT22;10145;49.152;9.282;2024-01-11T14:23:11;1.20;99.90
19968;DHT22;10145;49.152;9.282;2024-01-11T14:25:36;1.20;99.90
19968;DHT22;10145;49.152;9.282;2024-01-11T14:28:02;1.10;99.90
19968;DHT22;10145;49.152;9.282;2024-01-11T14:30:29;1.10;99.90
19968;DHT22;10145;49.152;9.282;2024-01-11T14:32:55;1.10;99.90
19968;DHT22;10145;49.152;9.282;2024-01-11T14:35:20;1.10;99.90
19968;DHT22;10145;49.152;9.282;2024-01-11T14:37:46;1.20;99.90
19968;DHT22;10145;49.152;9.282;2024-01-11T14:40:12;1.00;99.90
19968;DHT22;10145;49.152;9.282;2024-01-11T14:42:38;1.00;99.90
19968;DHT22;10145;49.152;9.282;2024-01-11T14:45:04;1.10;99.90
19968;DHT22;10145;49.152;9.282;2024-01-11T14:47:30;1.00;99.90
19968;DHT22;10145;49.152;9.282;2024-01-11T14:49:57;1.00;99.90
19968;DHT22;10145;49.152;9.282;2024-01-11T14:52:22;1.00;99.90
19968;DHT22;10145;49.152;9.282;2024-01-11T14:54:48;0.90;99.90
19968;DHT22;10145;49.152;9.282;2024-01-11T14:57:14;0.70;99.90
19968;DHT22;10145;49.152;9.282;2024-01-11T14:59:40;0.70;99.90
19968;DHT22;10145;49.152;9.282;2024-01-11T15:02:06;0.50;99.90
19968;DHT22;10145;49.152;9.282;2024-01-11T15:04:31;0.40;99.90
19968;DHT22;10145;49.152;9.282;2024-01-11T15:06:57;0.40;99.90
19968;DHT22;10145;49.152;9.282;2024-01-11T15:09:22;0.30;99.90
19968;DHT22;10145;49.152;9.282;2024-01-11T15:11:48;0.20;99.90
19968;DHT22;10145;49.152;9.282;2024-01-11T15:14:14;0.00;99.90
19968;DHT22;10145;49.152;9.282;2024-01-11T15:16:39;-0.10;99.90
19968;DHT22;10145;49.152;9.282;2024-01-11T15:19:05;-0.20;99.90
19968;DHT22;10145;49.152;9.282;2024-01-11T15:21:31;-0.30;99.90
19968;DHT22;10145;49.152;9.282;2024-01-11T15:23:57;-0.40;99.90
19968;DHT22;10145;49.152;9.282;2024-01-11T15:26:26;-0.50;99.90
19968;DHT22;10145;49.152;9.282;2024-01-11T15:28:54;-0.70;99.90